Buffalo Hill, California
Current Conditions -  °F | °C
As of 3:15 PM on Wednesday 22 Oct 2014 (Local Time) from KPVF Reporting Station
Clear Clear  
Wind Chill: 66°   Ceiling: Unl
Heat Index: 66°   Visibility: 10mi
Dew Point: 34°   Wind: 8mph
Humidity: 30%   Direction: 270°W
Pressure: 30.09"   Gusts: NA
Location:  38.9159°N, 120.725°W
Report Text: KPVF 222215Z AUTO 27007KT 10SM CLR 19/01 A3009 RMK AO1
Loading
Personal Weather Stations






























Interactive Weather Map
Tropical Storm Tracking
New forecast layout! Learn more

10-Day Weather Forecast

Advertisements
Track Severe Weather on mobile